createdAt,value
2022-12-25T00:01:38.462Z,54.97
2022-12-25T00:04:05.762Z,60.88
2022-12-25T00:06:32.943Z,48.75
2022-12-25T00:09:00.135Z,55.47
2022-12-25T00:11:27.593Z,44.00
2022-12-25T00:13:54.801Z,50.40
2022-12-25T00:16:25.704Z,48.33
2022-12-25T00:18:54.046Z,46.33
2022-12-25T00:21:22.162Z,60.97
2022-12-25T00:23:54.948Z,45.55
2022-12-25T00:26:23.013Z,47.65
2022-12-25T00:28:55.411Z,42.22
2022-12-25T00:31:24.307Z,49.60
2022-12-25T00:33:52.331Z,45.13
2022-12-25T00:36:22.500Z,47.85
2022-12-25T00:38:49.737Z,48.90
2022-12-25T00:41:40.965Z,48.67
2022-12-25T00:44:10.802Z,55.28
2022-12-25T00:46:38.290Z,53.45
2022-12-25T00:49:06.326Z,45.70
2022-12-25T00:51:33.976Z,60.00
2022-12-25T00:54:01.396Z,60.15
2022-12-25T00:56:28.598Z,51.25
2022-12-25T00:58:56.083Z,42.60
2022-12-25T01:01:23.466Z,57.58
2022-12-25T01:03:50.684Z,59.30
2022-12-25T01:06:17.951Z,45.80
2022-12-25T01:09:05.075Z,45.40
2022-12-25T01:11:32.339Z,39.00
2022-12-25T01:13:59.586Z,49.00
2022-12-25T01:16:28.016Z,57.05
2022-12-25T01:18:56.026Z,52.85
2022-12-25T01:21:23.826Z,47.10
2022-12-25T01:23:52.786Z,37.80
2022-12-25T01:26:26.114Z,40.00
2022-12-25T01:28:54.025Z,39.72
2022-12-25T01:31:24.365Z,44.10
2022-12-25T01:33:52.943Z,40.38
2022-12-25T01:36:25.653Z,36.63
2022-12-25T01:38:54.148Z,40.28
2022-12-25T01:41:24.364Z,49.08
2022-12-25T01:44:08.936Z,42.20
2022-12-25T01:46:36.661Z,44.50
2022-12-25T01:49:09.584Z,47.72
2022-12-25T01:52:14.922Z,39.65
2022-12-25T01:55:04.061Z,42.55
2022-12-25T01:57:37.631Z,49.95
2022-12-25T02:00:07.596Z,38.83
2022-12-25T02:02:36.158Z,45.40
2022-12-25T02:05:12.017Z,44.13
2022-12-25T02:07:41.306Z,39.90
2022-12-25T02:10:11.564Z,44.10
2022-12-25T02:12:39.870Z,46.88
2022-12-25T02:15:13.824Z,52.88
2022-12-25T02:18:11.441Z,35.28
2022-12-25T02:21:09.077Z,38.22
2022-12-25T02:23:57.787Z,35.80
2022-12-25T02:26:50.462Z,32.55
2022-12-25T02:29:29.071Z,28.73
2022-12-25T02:32:15.681Z,42.03
2022-12-25T02:35:05.813Z,37.67
2022-12-25T02:38:01.213Z,40.58
2022-12-25T02:40:43.122Z,31.17
2022-12-25T02:43:46.917Z,38.53
2022-12-25T02:46:37.692Z,41.63
2022-12-25T02:49:34.446Z,37.35
2022-12-25T02:52:38.680Z,28.27
2022-12-25T02:55:36.295Z,32.33
2022-12-25T02:58:30.204Z,28.00
2022-12-25T03:01:25.125Z,36.22
2022-12-25T03:04:14.762Z,44.10
2022-12-25T03:07:00.340Z,33.33
2022-12-25T03:09:54.441Z,49.67
2022-12-25T03:13:01.625Z,42.42
2022-12-25T03:15:47.630Z,43.60
2022-12-25T03:18:20.016Z,43.60
2022-12-25T03:21:05.826Z,37.50
2022-12-25T03:23:54.033Z,31.60
2022-12-25T03:26:39.990Z,46.42
2022-12-25T03:29:07.133Z,37.60
2022-12-25T03:31:48.270Z,33.08
2022-12-25T03:35:16.784Z,37.17
2022-12-25T03:38:51.659Z,39.08
2022-12-25T03:41:59.309Z,34.67
2022-12-25T03:45:14.993Z,35.53
2022-12-25T03:48:07.284Z,49.45
2022-12-25T03:51:12.998Z,42.22
2022-12-25T03:54:08.077Z,37.28
2022-12-25T03:56:56.660Z,43.13
2022-12-25T03:59:43.047Z,45.30
2022-12-25T04:02:29.015Z,37.85
2022-12-25T04:05:14.682Z,32.83
2022-12-25T04:08:00.255Z,28.60
2022-12-25T04:10:46.292Z,50.60
2022-12-25T04:13:31.785Z,45.92
2022-12-25T04:16:17.423Z,42.97
2022-12-25T04:19:03.532Z,50.22
2022-12-25T04:21:49.322Z,40.78
2022-12-25T04:24:34.930Z,52.70
2022-12-25T04:27:20.744Z,42.00
2022-12-25T04:30:06.200Z,61.95
2022-12-25T04:32:52.020Z,43.20
2022-12-25T04:35:37.957Z,36.25
2022-12-25T04:38:05.078Z,32.75
2022-12-25T04:40:33.423Z,31.95
2022-12-25T04:43:00.579Z,30.65
2022-12-25T04:45:27.774Z,27.05
2022-12-25T04:47:54.935Z,26.73
2022-12-25T04:50:22.096Z,21.95
2022-12-25T04:52:49.219Z,24.30
2022-12-25T04:55:16.400Z,22.48
2022-12-25T04:57:43.541Z,24.00
2022-12-25T05:00:11.410Z,29.10
2022-12-25T05:02:38.728Z,34.72
2022-12-25T05:05:06.334Z,30.85
2022-12-25T05:07:33.625Z,39.40
2022-12-25T05:10:00.812Z,37.85
2022-12-25T05:12:27.963Z,45.53
2022-12-25T05:14:55.113Z,43.63
2022-12-25T05:17:22.266Z,43.53
2022-12-25T05:19:49.418Z,52.10
2022-12-25T05:22:16.565Z,38.38
2022-12-25T05:24:43.676Z,33.38
2022-12-25T05:27:10.819Z,31.27
2022-12-25T05:29:37.977Z,35.55
2022-12-25T05:32:05.276Z,37.08
2022-12-25T05:34:32.435Z,33.40
2022-12-25T05:36:59.982Z,26.73
2022-12-25T05:39:27.134Z,40.50
2022-12-25T05:41:54.315Z,42.75
2022-12-25T05:44:21.530Z,37.40
2022-12-25T05:46:48.806Z,34.00
2022-12-25T05:49:16.428Z,41.33
2022-12-25T05:51:43.693Z,35.67
2022-12-25T05:54:10.842Z,33.92
2022-12-25T05:56:38.492Z,40.22
2022-12-25T05:59:05.749Z,36.20
2022-12-25T06:01:33.046Z,45.00
2022-12-25T06:04:00.412Z,46.05
2022-12-25T06:06:27.615Z,40.63
2022-12-25T06:08:55.262Z,34.92
2022-12-25T06:11:22.934Z,42.28
2022-12-25T06:13:52.042Z,39.17
2022-12-25T06:16:19.620Z,42.30
2022-12-25T06:18:52.039Z,56.13
2022-12-25T06:21:19.302Z,50.78
2022-12-25T06:23:46.590Z,42.72
2022-12-25T06:26:19.849Z,39.78
2022-12-25T06:28:47.545Z,42.50
2022-12-25T06:31:22.082Z,41.88
2022-12-25T06:33:49.581Z,41.88
2022-12-25T06:36:31.902Z,45.25
2022-12-25T06:39:03.550Z,44.07
2022-12-25T06:41:31.263Z,44.75
2022-12-25T06:44:07.302Z,41.22
2022-12-25T06:46:38.236Z,45.83
2022-12-25T06:49:05.959Z,48.40
2022-12-25T06:51:33.846Z,41.00
2022-12-25T06:54:04.179Z,35.97
2022-12-25T06:56:33.742Z,38.40
2022-12-25T06:59:05.459Z,41.17
2022-12-25T07:01:48.846Z,42.08
2022-12-25T07:04:38.708Z,31.38
2022-12-25T07:07:09.358Z,40.80
2022-12-25T07:09:39.476Z,39.10
2022-12-25T07:12:19.937Z,38.42
2022-12-25T07:14:50.319Z,37.55
2022-12-25T07:17:18.383Z,40.55
2022-12-25T07:19:49.366Z,41.10
2022-12-25T07:22:17.360Z,34.47
2022-12-25T07:24:44.815Z,46.20
2022-12-25T07:27:12.124Z,42.20
2022-12-25T07:29:39.279Z,48.60
2022-12-25T07:32:06.964Z,42.50
2022-12-25T07:34:34.195Z,35.10
2022-12-25T07:37:01.365Z,32.83
2022-12-25T07:39:28.901Z,40.97
2022-12-25T07:41:56.155Z,42.70
2022-12-25T07:44:23.301Z,46.97
2022-12-25T07:46:50.916Z,39.17
2022-12-25T07:49:18.911Z,39.90
2022-12-25T07:51:46.063Z,44.58
2022-12-25T07:54:13.241Z,35.72
2022-12-25T07:56:40.613Z,43.97
2022-12-25T07:59:07.793Z,33.92
2022-12-25T08:01:35.241Z,39.67
2022-12-25T08:04:03.051Z,35.13
2022-12-25T08:06:33.750Z,33.53
2022-12-25T08:09:11.097Z,33.17
2022-12-25T08:11:39.499Z,35.45
2022-12-25T08:14:09.037Z,37.53
2022-12-25T08:16:39.601Z,39.97
2022-12-25T08:19:08.173Z,38.60
2022-12-25T08:21:35.295Z,44.15
2022-12-25T08:24:03.194Z,35.90
2022-12-25T08:26:30.645Z,44.78
2022-12-25T08:28:57.783Z,32.95
2022-12-25T08:31:29.272Z,91.97
2022-12-25T08:34:09.777Z,38.78
2022-12-25T08:36:37.894Z,47.85
2022-12-25T08:39:05.377Z,38.55
2022-12-25T08:41:32.515Z,35.38
2022-12-25T08:43:59.733Z,32.05
2022-12-25T08:46:27.021Z,23.23
2022-12-25T08:48:54.330Z,21.55
2022-12-25T08:51:23.318Z,30.83
2022-12-25T08:53:53.257Z,24.70
2022-12-25T08:56:20.718Z,24.00
2022-12-25T08:58:47.920Z,28.13
2022-12-25T09:01:15.158Z,26.73
2022-12-25T09:03:43.410Z,22.55
2022-12-25T09:06:15.136Z,26.98
2022-12-25T09:08:48.617Z,30.80
2022-12-25T09:11:19.640Z,20.98
2022-12-25T09:13:47.665Z,31.73
2022-12-25T09:16:20.292Z,30.92
2022-12-25T09:18:48.540Z,27.10
2022-12-25T09:21:17.332Z,25.73
2022-12-25T09:23:45.142Z,37.00
2022-12-25T09:26:16.865Z,97.88
2022-12-25T09:28:50.623Z,34.20
2022-12-25T09:31:20.189Z,30.92
2022-12-25T09:33:47.523Z,34.47
2022-12-25T09:36:15.162Z,34.63
2022-12-25T09:38:42.592Z,27.60
2022-12-25T09:41:16.930Z,32.10
2022-12-25T09:44:18.911Z,41.38
2022-12-25T09:47:10.611Z,30.40
2022-12-25T09:49:52.990Z,34.53
2022-12-25T09:52:30.272Z,32.33
2022-12-25T09:55:19.924Z,34.75
2022-12-25T09:57:55.513Z,29.92
2022-12-25T10:00:35.902Z,31.70
2022-12-25T10:03:39.372Z,32.05
2022-12-25T10:06:15.565Z,31.70
2022-12-25T10:09:03.925Z,36.05
2022-12-25T10:12:24.651Z,35.80
2022-12-25T10:15:33.595Z,33.85
2022-12-25T10:18:28.079Z,33.78
2022-12-25T10:20:58.603Z,38.13
2022-12-25T10:23:35.723Z,31.77
2022-12-25T10:26:11.872Z,37.95
2022-12-25T10:28:44.730Z,30.85
2022-12-25T10:31:21.419Z,37.10
2022-12-25T10:33:51.485Z,36.65
2022-12-25T10:36:24.281Z,31.17
2022-12-25T10:38:52.355Z,34.78
2022-12-25T10:41:38.268Z,45.63
2022-12-25T10:44:20.469Z,53.55
2022-12-25T10:46:51.262Z,51.67
2022-12-25T10:49:22.989Z,46.75
2022-12-25T10:51:51.075Z,39.17
2022-12-25T10:54:35.641Z,34.85
2022-12-25T10:57:09.932Z,48.33
2022-12-25T10:59:50.631Z,37.33
2022-12-25T11:02:26.137Z,43.17
2022-12-25T11:05:29.363Z,41.25
2022-12-25T11:08:00.150Z,58.47
2022-12-25T11:10:42.562Z,68.75
2022-12-25T11:13:27.221Z,51.53
2022-12-25T11:16:25.023Z,36.85
2022-12-25T11:18:55.144Z,39.10
2022-12-25T11:21:32.851Z,39.30
2022-12-25T11:24:07.173Z,43.63
2022-12-25T11:26:51.022Z,43.15
2022-12-25T11:29:46.379Z,49.03
2022-12-25T11:32:24.071Z,71.95
2022-12-25T11:34:51.551Z,61.63
2022-12-25T11:37:30.772Z,50.58
2022-12-25T11:39:58.334Z,43.25
2022-12-25T11:42:45.161Z,46.72
2022-12-25T11:45:19.635Z,58.92
2022-12-25T11:47:59.778Z,49.03
2022-12-25T11:50:43.618Z,108.10
2022-12-25T11:53:27.912Z,45.72
2022-12-25T11:56:08.014Z,40.08
2022-12-25T11:58:46.102Z,35.72
2022-12-25T12:01:51.030Z,41.75
2022-12-25T12:04:42.575Z,31.00
2022-12-25T12:07:29.129Z,42.65
2022-12-25T12:10:21.555Z,39.70
2022-12-25T12:13:15.492Z,44.30
2022-12-25T12:15:47.245Z,36.65
2022-12-25T12:18:21.849Z,39.75
2022-12-25T12:21:22.560Z,42.15
2022-12-25T12:24:17.361Z,43.25
2022-12-25T12:26:58.842Z,41.33
2022-12-25T12:29:38.755Z,44.15
2022-12-25T12:32:40.307Z,39.53
2022-12-25T12:35:39.978Z,37.72
2022-12-25T12:38:23.317Z,44.75
2022-12-25T12:43:38.857Z,45.72
2022-12-25T12:46:30.687Z,38.15
2022-12-25T12:49:29.165Z,34.17
2022-12-25T12:52:23.024Z,38.53
2022-12-25T12:55:04.866Z,37.28
2022-12-25T12:57:39.616Z,38.75
2022-12-25T13:00:21.121Z,32.40
2022-12-25T13:03:25.824Z,42.60
2022-12-25T13:06:29.734Z,44.67
2022-12-25T13:09:18.531Z,35.30
2022-12-25T13:11:46.042Z,35.88
2022-12-25T13:14:21.874Z,38.45
2022-12-25T13:16:54.048Z,45.65
2022-12-25T13:19:27.937Z,45.30
2022-12-25T13:22:02.366Z,45.75
2022-12-25T13:24:33.489Z,47.25
2022-12-25T13:27:20.651Z,55.63
2022-12-25T13:29:47.806Z,55.53
2022-12-25T13:32:24.054Z,58.65
2022-12-25T13:34:53.076Z,41.20
2022-12-25T13:37:25.331Z,44.10
2022-12-25T13:40:00.183Z,54.77
2022-12-25T13:42:33.072Z,45.45
2022-12-25T13:45:24.478Z,46.47
2022-12-25T13:47:55.459Z,47.72
2022-12-25T13:50:32.015Z,42.25
2022-12-25T13:53:16.265Z,48.65
2022-12-25T13:55:54.437Z,36.83
2022-12-25T13:58:33.379Z,48.42
2022-12-25T14:01:02.848Z,43.95
2022-12-25T14:03:46.247Z,49.80
2022-12-25T14:06:24.305Z,39.80
2022-12-25T14:08:54.968Z,106.78
2022-12-25T14:11:25.715Z,70.28
2022-12-25T14:14:00.023Z,56.38
2022-12-25T14:16:28.182Z,51.30
2022-12-25T14:18:59.735Z,62.75
2022-12-25T14:21:33.225Z,39.88
2022-12-25T14:24:00.727Z,53.17
2022-12-25T14:26:31.778Z,57.05
2022-12-25T14:29:04.850Z,55.90
2022-12-25T14:31:33.563Z,61.28
2022-12-25T14:34:04.013Z,53.35
2022-12-25T14:36:33.972Z,65.03
2022-12-25T14:39:06.188Z,66.85
2022-12-25T14:41:41.073Z,54.50
2022-12-25T14:44:36.740Z,47.88
2022-12-25T14:47:18.520Z,53.53
2022-12-25T14:49:47.511Z,58.50
2022-12-25T14:52:41.641Z,60.28
2022-12-25T14:55:21.464Z,59.55
2022-12-25T14:57:55.417Z,63.83
2022-12-25T15:00:27.121Z,55.83
2022-12-25T15:02:57.949Z,61.67
2022-12-25T15:05:37.455Z,56.67
2022-12-25T15:08:12.402Z,96.75
2022-12-25T15:13:29.308Z,55.38
2022-12-25T15:16:13.395Z,53.15
2022-12-25T15:18:45.230Z,45.88
2022-12-25T15:21:31.131Z,49.55
2022-12-25T15:24:00.027Z,51.53
2022-12-25T15:26:31.349Z,48.15
2022-12-25T15:28:59.327Z,53.13
2022-12-25T15:31:32.773Z,59.90
2022-12-25T15:34:04.083Z,78.75
2022-12-25T15:36:32.156Z,93.57
2022-12-25T15:38:59.763Z,91.97
2022-12-25T15:41:52.077Z,78.03
2022-12-25T15:44:20.014Z,80.72
2022-12-25T15:46:47.599Z,76.50
2022-12-25T15:49:15.905Z,81.53
2022-12-25T15:51:44.450Z,71.95
2022-12-25T15:54:11.826Z,61.10
2022-12-25T15:56:50.956Z,58.72
2022-12-25T15:59:20.353Z,57.67
2022-12-25T16:01:53.406Z,62.20
2022-12-25T16:04:22.086Z,60.15
2022-12-25T16:06:50.687Z,61.13
2022-12-25T16:09:20.263Z,53.30
2022-12-25T16:11:49.252Z,53.95
2022-12-25T16:14:16.509Z,58.47
2022-12-25T16:16:43.752Z,56.72
2022-12-25T16:19:10.916Z,45.55
2022-12-25T16:21:42.835Z,62.03
2022-12-25T16:24:10.694Z,64.28
2022-12-25T16:26:37.874Z,63.47
2022-12-25T16:29:07.501Z,68.35
2022-12-25T16:31:37.256Z,66.20
2022-12-25T16:34:06.432Z,61.17
2022-12-25T16:36:36.206Z,78.35
2022-12-25T16:39:04.641Z,79.47
2022-12-25T16:41:32.213Z,60.75
2022-12-25T16:44:02.968Z,47.40
2022-12-25T16:46:30.225Z,49.60
2022-12-25T16:48:57.487Z,58.50
2022-12-25T16:51:24.659Z,52.28
2022-12-25T16:53:53.156Z,62.35
2022-12-25T16:56:28.336Z,54.35
2022-12-25T16:58:57.889Z,55.42
2022-12-25T17:01:25.811Z,56.70
2022-12-25T17:03:53.344Z,60.83
2022-12-25T17:06:25.719Z,64.20
2022-12-25T17:08:56.830Z,52.85
2022-12-25T17:11:27.379Z,61.78
2022-12-25T17:13:55.363Z,75.15
2022-12-25T17:16:27.229Z,72.80
2022-12-25T17:19:04.246Z,57.97
2022-12-25T17:21:35.360Z,54.20
2022-12-25T17:24:04.196Z,49.72
2022-12-25T17:26:32.646Z,56.33
2022-12-25T17:29:00.560Z,50.55
2022-12-25T17:31:28.492Z,55.85
2022-12-25T17:33:55.825Z,71.55
2022-12-25T17:36:23.805Z,49.13
2022-12-25T17:38:50.942Z,57.95
2022-12-25T17:41:19.805Z,46.88
2022-12-25T17:43:48.573Z,44.90
2022-12-25T17:46:19.470Z,48.75
2022-12-25T17:48:49.946Z,43.03
2022-12-25T17:51:24.162Z,37.28
2022-12-25T17:53:55.864Z,40.28
2022-12-25T17:56:24.914Z,38.80
2022-12-25T17:58:57.090Z,41.47
2022-12-25T18:01:27.687Z,54.03
2022-12-25T18:03:55.934Z,39.63
2022-12-25T18:06:26.215Z,39.22
2022-12-25T18:08:56.545Z,41.33
2022-12-25T18:11:29.263Z,42.15
2022-12-25T18:13:58.264Z,36.03
2022-12-25T18:16:27.366Z,43.50
2022-12-25T18:18:54.737Z,42.65
2022-12-25T18:21:22.765Z,44.03
2022-12-25T18:23:50.544Z,45.70
2022-12-25T18:26:20.327Z,40.75
2022-12-25T18:28:49.454Z,41.80
2022-12-25T18:31:22.055Z,40.92
2022-12-25T18:33:51.466Z,38.05
2022-12-25T18:36:23.121Z,37.15
2022-12-25T18:38:52.545Z,44.13
2022-12-25T18:41:22.241Z,36.25
2022-12-25T18:43:53.619Z,33.00
2022-12-25T18:46:27.548Z,39.20
2022-12-25T18:48:56.665Z,39.63
2022-12-25T18:51:24.615Z,40.05
2022-12-25T18:53:51.849Z,47.85
2022-12-25T18:56:19.704Z,44.67
2022-12-25T18:58:47.313Z,41.55
2022-12-25T19:01:22.338Z,42.17
2022-12-25T19:03:57.149Z,43.05
2022-12-25T19:06:29.749Z,37.90
2022-12-25T19:08:58.014Z,48.08
2022-12-25T19:11:25.205Z,35.78
2022-12-25T19:13:52.393Z,45.92
2022-12-25T19:16:19.598Z,36.42
2022-12-25T19:18:46.804Z,41.05
2022-12-25T19:21:13.973Z,42.20
2022-12-25T19:23:41.152Z,36.08
2022-12-25T19:26:10.735Z,43.55
2022-12-25T19:28:39.286Z,43.15
2022-12-25T19:31:09.358Z,40.58
2022-12-25T19:33:39.863Z,38.72
2022-12-25T19:36:14.195Z,37.35
2022-12-25T19:38:42.383Z,36.50
2022-12-25T19:41:17.025Z,38.28
2022-12-25T19:43:47.597Z,38.65
2022-12-25T19:46:19.874Z,40.33
2022-12-25T19:48:47.435Z,32.47
2022-12-25T19:51:21.229Z,34.00
2022-12-25T19:53:48.448Z,28.30
2022-12-25T19:56:16.675Z,31.25
2022-12-25T19:58:45.041Z,28.45
2022-12-25T20:01:16.760Z,21.98
2022-12-25T20:03:47.680Z,25.42
2022-12-25T20:06:26.401Z,24.70
2022-12-25T20:08:58.034Z,30.35
2022-12-25T20:11:27.474Z,28.13
2022-12-25T20:13:55.254Z,23.17
2022-12-25T20:16:24.430Z,30.65
2022-12-25T20:18:53.301Z,26.58
2022-12-25T20:21:23.418Z,16.48
2022-12-25T20:23:53.039Z,24.30
2022-12-25T20:26:25.506Z,21.25
2022-12-25T20:28:53.241Z,23.02
2022-12-25T20:31:24.067Z,19.98
2022-12-25T20:33:51.211Z,21.50
2022-12-25T20:36:18.869Z,23.10
2022-12-25T20:38:46.031Z,17.15
2022-12-25T20:41:29.565Z,24.08
2022-12-25T20:43:57.195Z,21.83
2022-12-25T20:46:25.897Z,20.35
2022-12-25T20:48:53.921Z,20.10
2022-12-25T20:51:25.066Z,22.73
2022-12-25T20:53:53.608Z,19.83
2022-12-25T20:56:24.831Z,21.90
2022-12-25T20:58:58.385Z,18.58
2022-12-25T21:01:28.082Z,22.55
2022-12-25T21:03:56.411Z,19.17
2022-12-25T21:06:24.037Z,18.92
2022-12-25T21:08:51.189Z,21.65
2022-12-25T21:11:18.543Z,23.52
2022-12-25T21:13:46.622Z,25.05
2022-12-25T21:16:18.610Z,23.23
2022-12-25T21:18:46.303Z,22.47
2022-12-25T21:21:14.873Z,21.00
2022-12-25T21:23:42.103Z,19.55
2022-12-25T21:26:25.852Z,19.08
2022-12-25T21:28:57.161Z,21.70
2022-12-25T21:31:25.601Z,22.52
2022-12-25T21:33:55.063Z,21.42
2022-12-25T21:36:32.013Z,23.42
2022-12-25T21:39:07.749Z,26.15
2022-12-25T21:41:37.906Z,21.35
2022-12-25T21:44:06.494Z,19.52
2022-12-25T21:46:34.548Z,20.95
2022-12-25T21:49:01.792Z,21.05
2022-12-25T21:51:51.720Z,24.45
2022-12-25T21:54:23.465Z,23.65
2022-12-25T21:56:50.847Z,20.38
2022-12-25T21:59:21.635Z,25.30
2022-12-25T22:01:51.298Z,20.90
2022-12-25T22:04:21.629Z,28.30
2022-12-25T22:07:07.508Z,24.38
2022-12-25T22:09:35.066Z,22.40
2022-12-25T22:12:21.421Z,20.40
2022-12-25T22:14:56.624Z,23.45
2022-12-25T22:17:47.145Z,20.83
2022-12-25T22:20:24.931Z,22.58
2022-12-25T22:22:53.032Z,22.17
2022-12-25T22:25:21.153Z,25.38
2022-12-25T22:27:49.825Z,25.70
2022-12-25T22:30:28.054Z,25.33
2022-12-25T22:32:55.912Z,23.65
2022-12-25T22:35:23.870Z,22.17
2022-12-25T22:37:51.366Z,42.88
2022-12-25T22:40:19.999Z,26.00
2022-12-25T22:42:51.430Z,21.98
2022-12-25T22:45:20.469Z,23.20
2022-12-25T22:47:47.648Z,26.23
2022-12-25T22:50:15.840Z,20.48
2022-12-25T22:52:45.591Z,24.58
2022-12-25T22:55:17.903Z,25.35
2022-12-25T22:57:45.061Z,26.37
2022-12-25T23:00:13.662Z,23.85
2022-12-25T23:02:41.027Z,24.63
2022-12-25T23:05:08.658Z,27.52
2022-12-25T23:07:35.928Z,26.60
2022-12-25T23:10:04.857Z,26.15
2022-12-25T23:12:50.897Z,28.70
2022-12-25T23:15:18.478Z,25.05
2022-12-25T23:18:04.199Z,30.60
2022-12-25T23:20:51.451Z,27.08
2022-12-25T23:23:37.450Z,32.33
2022-12-25T23:26:07.652Z,27.95
2022-12-25T23:29:00.276Z,34.15
2022-12-25T23:31:39.430Z,34.47
2022-12-25T23:34:07.823Z,31.55
2022-12-25T23:36:35.566Z,31.45
2022-12-25T23:39:09.548Z,27.27
2022-12-25T23:41:42.556Z,32.58
2022-12-25T23:44:13.528Z,30.40
2022-12-25T23:46:52.802Z,28.92
2022-12-25T23:49:25.560Z,28.55
2022-12-25T23:51:54.678Z,39.63
2022-12-25T23:54:26.909Z,33.47
2022-12-25T23:57:00.223Z,33.33
2022-12-25T23:59:30.157Z,29.38
